sensor_id;sensor_type;location;lat;lon;timestamp;temperature;humidity
19966;DHT22;10144;50.874;4.762;2024-01-15T00:01:10;2.00;99.90
19966;DHT22;10144;50.874;4.762;2024-01-15T00:06:58;2.10;99.90
19966;DHT22;10144;50.874;4.762;2024-01-15T00:12:46;2.00;99.90
19966;DHT22;10144;50.874;4.762;2024-01-15T00:27:06;1.90;99.90
19966;DHT22;10144;50.874;4.762;2024-01-15T00:29:35;1.90;99.90
19966;DHT22;10144;50.874;4.762;2024-01-15T00:32:01;1.90;99.90
19966;DHT22;10144;50.874;4.762;2024-01-15T00:34:28;2.10;99.90
19966;DHT22;10144;50.874;4.762;2024-01-15T00:36:55;2.00;99.90
19966;DHT22;10144;50.874;4.762;2024-01-15T00:39:23;2.10;99.90
19966;DHT22;10144;50.874;4.762;2024-01-15T00:41:55;2.10;99.90
19966;DHT22;10144;50.874;4.762;2024-01-15T00:44:23;2.20;99.90
19966;DHT22;10144;50.874;4.762;2024-01-15T00:46:49;2.30;99.90
19966;DHT22;10144;50.874;4.762;2024-01-15T00:49:15;2.40;99.90
19966;DHT22;10144;50.874;4.762;2024-01-15T00:51:41;2.40;99.90
19966;DHT22;10144;50.874;4.762;2024-01-15T00:54:08;2.40;99.90
19966;DHT22;10144;50.874;4.762;2024-01-15T00:56:35;2.30;99.90
19966;DHT22;10144;50.874;4.762;2024-01-15T00:59:01;2.40;99.90
19966;DHT22;10144;50.874;4.762;2024-01-15T01:01:27;2.40;99.90
19966;DHT22;10144;50.874;4.762;2024-01-15T01:03:58;2.50;99.90
19966;DHT22;10144;50.874;4.762;2024-01-15T01:06:25;2.60;99.90
19966;DHT22;10144;50.874;4.762;2024-01-15T01:08:53;2.70;99.90
19966;DHT22;10144;50.874;4.762;2024-01-15T01:11:20;2.70;99.90
19966;DHT22;10144;50.874;4.762;2024-01-15T01:13:48;2.70;99.90
19966;DHT22;10144;50.874;4.762;2024-01-15T01:16:14;2.50;99.90
19966;DHT22;10144;50.874;4.762;2024-01-15T01:18:43;2.50;99.90
19966;DHT22;10144;50.874;4.762;2024-01-15T01:21:12;2.60;99.90
19966;DHT22;10144;50.874;4.762;2024-01-15T01:23:38;2.70;99.90
19966;DHT22;10144;50.874;4.762;2024-01-15T01:26:03;2.50;99.90
19966;DHT22;10144;50.874;4.762;2024-01-15T01:28:30;2.30;99.90
19966;DHT22;10144;50.874;4.762;2024-01-15T01:30:57;2.40;99.90
19966;DHT22;10144;50.874;4.762;2024-01-15T01:33:26;2.50;99.90
19966;DHT22;10144;50.874;4.762;2024-01-15T01:35:55;2.50;99.90
19966;DHT22;10144;50.874;4.762;2024-01-15T01:38:25;2.40;99.90
19966;DHT22;10144;50.874;4.762;2024-01-15T01:40:53;2.30;99.90
19966;DHT22;10144;50.874;4.762;2024-01-15T01:43:22;2.30;99.90
19966;DHT22;10144;50.874;4.762;2024-01-15T01:45:51;2.40;99.90
19966;DHT22;10144;50.874;4.762;2024-01-15T01:48:18;2.30;99.90
19966;DHT22;10144;50.874;4.762;2024-01-15T01:50:44;2.30;99.90
19966;DHT22;10144;50.874;4.762;2024-01-15T01:53:13;2.20;99.90
19966;DHT22;10144;50.874;4.762;2024-01-15T01:55:39;2.20;99.90
19966;DHT22;10144;50.874;4.762;2024-01-15T01:58:08;2.10;99.90
19966;DHT22;10144;50.874;4.762;2024-01-15T02:00:50;2.20;99.90
19966;DHT22;10144;50.874;4.762;2024-01-15T02:03:19;2.20;99.90
19966;DHT22;10144;50.874;4.762;2024-01-15T02:05:48;2.10;99.90
19966;DHT22;10144;50.874;4.762;2024-01-15T02:08:18;2.10;99.90
19966;DHT22;10144;50.874;4.762;2024-01-15T02:10:44;2.00;99.90
19966;DHT22;10144;50.874;4.762;2024-01-15T02:13:10;2.00;99.90
19966;DHT22;10144;50.874;4.762;2024-01-15T02:15:37;2.00;99.90
19966;DHT22;10144;50.874;4.762;2024-01-15T02:18:05;2.00;99.90
19966;DHT22;10144;50.874;4.762;2024-01-15T02:20:36;1.90;99.90
19966;DHT22;10144;50.874;4.762;2024-01-15T02:23:21;1.90;99.90
19966;DHT22;10144;50.874;4.762;2024-01-15T02:25:47;1.90;99.90
19966;DHT22;10144;50.874;4.762;2024-01-15T02:28:22;2.00;99.90
19966;DHT22;10144;50.874;4.762;2024-01-15T02:30:48;2.00;99.90
19966;DHT22;10144;50.874;4.762;2024-01-15T02:33:14;1.90;99.90
19966;DHT22;10144;50.874;4.762;2024-01-15T02:35:49;2.00;99.90
19966;DHT22;10144;50.874;4.762;2024-01-15T02:38:19;2.00;99.90
19966;DHT22;10144;50.874;4.762;2024-01-15T02:40:47;1.90;99.90
19966;DHT22;10144;50.874;4.762;2024-01-15T02:43:16;1.90;99.90
19966;DHT22;10144;50.874;4.762;2024-01-15T02:45:45;2.10;99.90
19966;DHT22;10144;50.874;4.762;2024-01-15T02:48:11;2.10;99.90
19966;DHT22;10144;50.874;4.762;2024-01-15T02:50:40;2.10;99.90
19966;DHT22;10144;50.874;4.762;2024-01-15T02:53:07;2.10;99.90
19966;DHT22;10144;50.874;4.762;2024-01-15T02:55:33;2.10;99.90
19966;DHT22;10144;50.874;4.762;2024-01-15T02:58:01;2.10;99.90
19966;DHT22;10144;50.874;4.762;2024-01-15T03:00:30;2.20;99.90
19966;DHT22;10144;50.874;4.762;2024-01-15T03:02:58;2.20;99.90
19966;DHT22;10144;50.874;4.762;2024-01-15T03:05:24;2.10;99.90
19966;DHT22;10144;50.874;4.762;2024-01-15T03:07:53;2.20;99.90
19966;DHT22;10144;50.874;4.762;2024-01-15T03:10:22;2.20;99.90
19966;DHT22;10144;50.874;4.762;2024-01-15T03:12:47;2.30;99.90
19966;DHT22;10144;50.874;4.762;2024-01-15T03:15:13;2.30;99.90
19966;DHT22;10144;50.874;4.762;2024-01-15T03:17:41;2.30;99.90
19966;DHT22;10144;50.874;4.762;2024-01-15T03:20:11;2.20;99.90
19966;DHT22;10144;50.874;4.762;2024-01-15T03:22:40;2.30;99.90
19966;DHT22;10144;50.874;4.762;2024-01-15T03:25:08;2.20;99.90
19966;DHT22;10144;50.874;4.762;2024-01-15T03:27:34;2.10;99.90
19966;DHT22;10144;50.874;4.762;2024-01-15T03:30:02;2.10;99.90
19966;DHT22;10144;50.874;4.762;2024-01-15T03:32:29;2.00;99.90
19966;DHT22;10144;50.874;4.762;2024-01-15T03:34:55;2.00;99.90
19966;DHT22;10144;50.874;4.762;2024-01-15T03:37:21;2.00;99.90
19966;DHT22;10144;50.874;4.762;2024-01-15T03:39:50;2.20;99.90
19966;DHT22;10144;50.874;4.762;2024-01-15T03:42:15;2.20;99.90
19966;DHT22;10144;50.874;4.762;2024-01-15T03:44:42;2.20;99.90
19966;DHT22;10144;50.874;4.762;2024-01-15T03:47:10;2.30;99.90
19966;DHT22;10144;50.874;4.762;2024-01-15T03:49:39;2.20;99.90
19966;DHT22;10144;50.874;4.762;2024-01-15T03:52:12;2.20;99.90
19966;DHT22;10144;50.874;4.762;2024-01-15T03:54:40;2.20;99.90
19966;DHT22;10144;50.874;4.762;2024-01-15T03:57:09;2.10;99.90
19966;DHT22;10144;50.874;4.762;2024-01-15T03:59:37;2.10;99.90
19966;DHT22;10144;50.874;4.762;2024-01-15T04:02:06;2.00;99.90
19966;DHT22;10144;50.874;4.762;2024-01-15T04:04:41;2.00;99.90
19966;DHT22;10144;50.874;4.762;2024-01-15T04:07:10;2.00;99.90
19966;DHT22;10144;50.874;4.762;2024-01-15T04:09:36;2.10;99.90
19966;DHT22;10144;50.874;4.762;2024-01-15T04:12:07;2.30;99.90
19966;DHT22;10144;50.874;4.762;2024-01-15T04:14:33;2.40;99.90
19966;DHT22;10144;50.874;4.762;2024-01-15T04:17:01;2.30;99.90
19966;DHT22;10144;50.874;4.762;2024-01-15T04:19:30;2.30;99.90
19966;DHT22;10144;50.874;4.762;2024-01-15T04:21:56;2.20;99.90
19966;DHT22;10144;50.874;4.762;2024-01-15T04:24:28;2.10;99.90
19966;DHT22;10144;50.874;4.762;2024-01-15T04:26:53;2.00;99.90
19966;DHT22;10144;50.874;4.762;2024-01-15T04:29:20;2.10;99.90
19966;DHT22;10144;50.874;4.762;2024-01-15T04:31:46;2.00;99.90
19966;DHT22;10144;50.874;4.762;2024-01-15T04:34:12;2.00;99.90
19966;DHT22;10144;50.874;4.762;2024-01-15T04:36:46;1.90;99.90
19966;DHT22;10144;50.874;4.762;2024-01-15T04:39:15;1.90;99.90
19966;DHT22;10144;50.874;4.762;2024-01-15T04:41:43;1.80;99.90
19966;DHT22;10144;50.874;4.762;2024-01-15T04:44:11;1.80;99.90
19966;DHT22;10144;50.874;4.762;2024-01-15T04:46:39;1.80;99.90
19966;DHT22;10144;50.874;4.762;2024-01-15T04:49:05;1.60;99.90
19966;DHT22;10144;50.874;4.762;2024-01-15T04:51:31;1.50;99.90
19966;DHT22;10144;50.874;4.762;2024-01-15T04:54:00;1.50;99.90
19966;DHT22;10144;50.874;4.762;2024-01-15T04:56:27;1.40;99.90
19966;DHT22;10144;50.874;4.762;2024-01-15T04:58:55;1.30;99.90
19966;DHT22;10144;50.874;4.762;2024-01-15T05:01:22;1.20;99.90
19966;DHT22;10144;50.874;4.762;2024-01-15T05:03:51;1.40;99.90
19966;DHT22;10144;50.874;4.762;2024-01-15T05:06:16;1.40;99.90
19966;DHT22;10144;50.874;4.762;2024-01-15T05:08:45;1.30;99.90
19966;DHT22;10144;50.874;4.762;2024-01-15T05:11:12;1.20;99.90
19966;DHT22;10144;50.874;4.762;2024-01-15T05:13:41;1.20;99.90
19966;DHT22;10144;50.874;4.762;2024-01-15T05:16:07;1.10;99.90
19966;DHT22;10144;50.874;4.762;2024-01-15T05:18:36;1.00;99.90
19966;DHT22;10144;50.874;4.762;2024-01-15T05:21:08;0.90;99.90
19966;DHT22;10144;50.874;4.762;2024-01-15T05:23:37;1.00;99.90
19966;DHT22;10144;50.874;4.762;2024-01-15T05:26:09;1.10;99.90
19966;DHT22;10144;50.874;4.762;2024-01-15T05:28:47;1.20;99.90
19966;DHT22;10144;50.874;4.762;2024-01-15T05:31:14;1.20;99.90
19966;DHT22;10144;50.874;4.762;2024-01-15T05:33:39;1.10;99.90
19966;DHT22;10144;50.874;4.762;2024-01-15T05:36:07;1.10;99.90
19966;DHT22;10144;50.874;4.762;2024-01-15T05:38:38;1.10;99.90
19966;DHT22;10144;50.874;4.762;2024-01-15T05:41:07;1.10;99.90
19966;DHT22;10144;50.874;4.762;2024-01-15T05:43:36;1.00;99.90
19966;DHT22;10144;50.874;4.762;2024-01-15T05:46:12;1.20;99.90
19966;DHT22;10144;50.874;4.762;2024-01-15T05:48:41;1.10;99.90
19966;DHT22;10144;50.874;4.762;2024-01-15T05:51:08;1.10;99.90
19966;DHT22;10144;50.874;4.762;2024-01-15T05:53:34;1.10;99.90
19966;DHT22;10144;50.874;4.762;2024-01-15T05:56:01;1.00;99.90
19966;DHT22;10144;50.874;4.762;2024-01-15T05:58:27;0.90;99.90
19966;DHT22;10144;50.874;4.762;2024-01-15T06:00:53;0.80;99.90
19966;DHT22;10144;50.874;4.762;2024-01-15T06:03:21;0.80;99.90
19966;DHT22;10144;50.874;4.762;2024-01-15T06:05:50;0.80;99.90
19966;DHT22;10144;50.874;4.762;2024-01-15T06:08:19;0.60;99.90
19966;DHT22;10144;50.874;4.762;2024-01-15T06:10:46;0.60;99.90
19966;DHT22;10144;50.874;4.762;2024-01-15T06:13:12;0.60;99.90
19966;DHT22;10144;50.874;4.762;2024-01-15T06:15:40;0.60;99.90
19966;DHT22;10144;50.874;4.762;2024-01-15T06:18:05;0.60;99.90
19966;DHT22;10144;50.874;4.762;2024-01-15T06:20:34;0.60;99.90
19966;DHT22;10144;50.874;4.762;2024-01-15T06:23:01;0.60;99.90
19966;DHT22;10144;50.874;4.762;2024-01-15T06:25:27;0.50;99.90
19966;DHT22;10144;50.874;4.762;2024-01-15T06:27:58;0.60;99.90
19966;DHT22;10144;50.874;4.762;2024-01-15T06:30:26;0.50;99.90
19966;DHT22;10144;50.874;4.762;2024-01-15T06:32:55;0.50;99.90
19966;DHT22;10144;50.874;4.762;2024-01-15T06:35:26;0.60;99.90
19966;DHT22;10144;50.874;4.762;2024-01-15T06:37:55;0.50;99.90
19966;DHT22;10144;50.874;4.762;2024-01-15T06:40:27;0.50;99.90
19966;DHT22;10144;50.874;4.762;2024-01-15T06:42:54;0.40;99.90
19966;DHT22;10144;50.874;4.762;2024-01-15T06:45:23;0.50;99.90
19966;DHT22;10144;50.874;4.762;2024-01-15T06:47:52;0.50;99.90
19966;DHT22;10144;50.874;4.762;2024-01-15T06:50:21;0.50;99.90
19966;DHT22;10144;50.874;4.762;2024-01-15T06:52:50;0.60;99.90
19966;DHT22;10144;50.874;4.762;2024-01-15T06:55:16;0.60;99.90
19966;DHT22;10144;50.874;4.762;2024-01-15T06:57:41;0.60;99.90
19966;DHT22;10144;50.874;4.762;2024-01-15T07:00:09;0.60;99.90
19966;DHT22;10144;50.874;4.762;2024-01-15T07:05:58;0.60;99.90
19966;DHT22;10144;50.874;4.762;2024-01-15T07:08:26;0.70;99.90
19966;DHT22;10144;50.874;4.762;2024-01-15T07:11:19;0.70;99.90
19966;DHT22;10144;50.874;4.762;2024-01-15T07:13:47;0.70;99.90
19966;DHT22;10144;50.874;4.762;2024-01-15T07:16:13;0.70;99.90
19966;DHT22;10144;50.874;4.762;2024-01-15T07:18:42;0.60;99.90
19966;DHT22;10144;50.874;4.762;2024-01-15T07:21:13;1.00;99.90
19966;DHT22;10144;50.874;4.762;2024-01-15T07:23:42;0.90;99.90
19966;DHT22;10144;50.874;4.762;2024-01-15T07:26:09;0.80;99.90
19966;DHT22;10144;50.874;4.762;2024-01-15T07:28:35;0.70;99.90
19966;DHT22;10144;50.874;4.762;2024-01-15T07:31:03;0.60;99.90
19966;DHT22;10144;50.874;4.762;2024-01-15T07:33:29;0.60;99.90
19966;DHT22;10144;50.874;4.762;2024-01-15T07:35:58;0.60;99.90
19966;DHT22;10144;50.874;4.762;2024-01-15T07:38:27;0.60;99.90
19966;DHT22;10144;50.874;4.762;2024-01-15T07:40:55;0.60;99.90
19966;DHT22;10144;50.874;4.762;2024-01-15T07:43:21;0.70;99.90
19966;DHT22;10144;50.874;4.762;2024-01-15T07:45:51;0.70;99.90
19966;DHT22;10144;50.874;4.762;2024-01-15T07:48:20;0.70;99.90
19966;DHT22;10144;50.874;4.762;2024-01-15T07:50:47;0.70;99.90
19966;DHT22;10144;50.874;4.762;2024-01-15T07:53:12;0.70;99.90
19966;DHT22;10144;50.874;4.762;2024-01-15T07:55:44;0.70;99.90
19966;DHT22;10144;50.874;4.762;2024-01-15T07:58:14;0.70;99.90
19966;DHT22;10144;50.874;4.762;2024-01-15T08:00:40;0.80;99.90
19966;DHT22;10144;50.874;4.762;2024-01-15T08:03:09;0.80;99.90
19966;DHT22;10144;50.874;4.762;2024-01-15T08:05:38;0.80;99.90
19966;DHT22;10144;50.874;4.762;2024-01-15T08:08:10;0.80;99.90
19966;DHT22;10144;50.874;4.762;2024-01-15T08:10:39;0.80;99.90
19966;DHT22;10144;50.874;4.762;2024-01-15T08:13:07;0.90;99.90
19966;DHT22;10144;50.874;4.762;2024-01-15T08:15:37;1.00;99.90
19966;DHT22;10144;50.874;4.762;2024-01-15T08:18:03;1.00;99.90
19966;DHT22;10144;50.874;4.762;2024-01-15T08:20:28;1.10;99.90
19966;DHT22;10144;50.874;4.762;2024-01-15T08:22:54;1.20;99.90
19966;DHT22;10144;50.874;4.762;2024-01-15T08:25:20;1.20;99.90
19966;DHT22;10144;50.874;4.762;2024-01-15T08:27:45;1.40;99.90
19966;DHT22;10144;50.874;4.762;2024-01-15T08:30:11;1.50;99.90
19966;DHT22;10144;50.874;4.762;2024-01-15T08:32:37;1.50;99.90
19966;DHT22;10144;50.874;4.762;2024-01-15T08:35:10;1.50;99.90
19966;DHT22;10144;50.874;4.762;2024-01-15T08:37:37;1.50;99.90
19966;DHT22;10144;50.874;4.762;2024-01-15T08:40:03;1.60;99.90
19966;DHT22;10144;50.874;4.762;2024-01-15T08:42:29;1.70;99.90
19966;DHT22;10144;50.874;4.762;2024-01-15T08:44:55;1.80;99.90
19966;DHT22;10144;50.874;4.762;2024-01-15T08:47:20;1.70;99.90
19966;DHT22;10144;50.874;4.762;2024-01-15T08:49:46;1.80;99.90
19966;DHT22;10144;50.874;4.762;2024-01-15T08:52:12;1.80;99.90
19966;DHT22;10144;50.874;4.762;2024-01-15T08:54:37;1.90;99.90
19966;DHT22;10144;50.874;4.762;2024-01-15T08:57:03;2.00;99.90
19966;DHT22;10144;50.874;4.762;2024-01-15T08:59:29;2.00;99.90
19966;DHT22;10144;50.874;4.762;2024-01-15T09:01:54;2.10;99.90
19966;DHT22;10144;50.874;4.762;2024-01-15T09:04:23;2.10;99.90
19966;DHT22;10144;50.874;4.762;2024-01-15T09:06:48;2.20;99.90
19966;DHT22;10144;50.874;4.762;2024-01-15T09:09:14;2.10;99.90
19966;DHT22;10144;50.874;4.762;2024-01-15T09:11:41;2.20;99.90
19966;DHT22;10144;50.874;4.762;2024-01-15T09:14:07;2.20;99.90
19966;DHT22;10144;50.874;4.762;2024-01-15T09:16:33;2.40;99.90
19966;DHT22;10144;50.874;4.762;2024-01-15T09:18:59;2.50;99.90
19966;DHT22;10144;50.874;4.762;2024-01-15T09:21:25;2.60;99.90
19966;DHT22;10144;50.874;4.762;2024-01-15T09:23:51;2.60;99.90
19966;DHT22;10144;50.874;4.762;2024-01-15T09:26:17;2.60;99.90
19966;DHT22;10144;50.874;4.762;2024-01-15T09:28:42;2.60;99.90
19966;DHT22;10144;50.874;4.762;2024-01-15T09:31:08;2.70;99.90
19966;DHT22;10144;50.874;4.762;2024-01-15T09:33:34;2.60;99.90
19966;DHT22;10144;50.874;4.762;2024-01-15T09:36:03;2.70;99.90
19966;DHT22;10144;50.874;4.762;2024-01-15T09:38:29;2.70;99.90
19966;DHT22;10144;50.874;4.762;2024-01-15T09:40:57;2.70;99.90
19966;DHT22;10144;50.874;4.762;2024-01-15T09:43:22;2.70;99.90
19966;DHT22;10144;50.874;4.762;2024-01-15T09:45:49;2.70;99.90
19966;DHT22;10144;50.874;4.762;2024-01-15T09:48:15;2.60;99.90
19966;DHT22;10144;50.874;4.762;2024-01-15T09:50:42;2.60;99.90
19966;DHT22;10144;50.874;4.762;2024-01-15T09:53:09;2.80;99.90
19966;DHT22;10144;50.874;4.762;2024-01-15T09:55:36;4.50;99.90
19966;DHT22;10144;50.874;4.762;2024-01-15T09:58:03;6.80;99.90
19966;DHT22;10144;50.874;4.762;2024-01-15T10:00:30;9.10;99.90
19966;DHT22;10144;50.874;4.762;2024-01-15T10:02:58;10.00;99.90
19966;DHT22;10144;50.874;4.762;2024-01-15T10:05:27;11.40;99.90
19966;DHT22;10144;50.874;4.762;2024-01-15T10:07:54;12.30;99.90
19966;DHT22;10144;50.874;4.762;2024-01-15T10:10:21;13.50;99.90
19966;DHT22;10144;50.874;4.762;2024-01-15T10:12:48;13.50;99.90
19966;DHT22;10144;50.874;4.762;2024-01-15T10:15:14;13.70;99.90
19966;DHT22;10144;50.874;4.762;2024-01-15T10:17:41;13.60;99.90
19966;DHT22;10144;50.874;4.762;2024-01-15T10:20:11;13.60;99.90
19966;DHT22;10144;50.874;4.762;2024-01-15T10:22:41;14.50;99.90
19966;DHT22;10144;50.874;4.762;2024-01-15T10:25:12;13.60;99.90
19966;DHT22;10144;50.874;4.762;2024-01-15T10:27:39;14.20;99.90
19966;DHT22;10144;50.874;4.762;2024-01-15T10:30:06;13.60;99.90
19966;DHT22;10144;50.874;4.762;2024-01-15T10:32:32;13.80;99.90
19966;DHT22;10144;50.874;4.762;2024-01-15T10:34:58;15.20;99.90
19966;DHT22;10144;50.874;4.762;2024-01-15T10:37:24;13.90;99.90
19966;DHT22;10144;50.874;4.762;2024-01-15T10:39:51;13.50;99.90
19966;DHT22;10144;50.874;4.762;2024-01-15T10:42:17;13.00;99.90
19966;DHT22;10144;50.874;4.762;2024-01-15T10:44:44;13.80;99.90
19966;DHT22;10144;50.874;4.762;2024-01-15T10:47:12;14.00;99.90
19966;DHT22;10144;50.874;4.762;2024-01-15T10:49:38;14.00;99.90
19966;DHT22;10144;50.874;4.762;2024-01-15T10:52:06;14.30;1.00
19966;DHT22;10144;50.874;4.762;2024-01-15T10:54:32;14.10;1.00
19966;DHT22;10144;50.874;4.762;2024-01-15T10:56:59;13.80;1.00
19966;DHT22;10144;50.874;4.762;2024-01-15T10:59:25;13.30;99.90
19966;DHT22;10144;50.874;4.762;2024-01-15T11:01:51;12.90;99.90
19966;DHT22;10144;50.874;4.762;2024-01-15T11:04:21;12.50;99.90
19966;DHT22;10144;50.874;4.762;2024-01-15T11:06:52;13.10;59.70
19966;DHT22;10144;50.874;4.762;2024-01-15T11:09:19;13.10;99.90
19966;DHT22;10144;50.874;4.762;2024-01-15T11:11:45;12.60;99.90
19966;DHT22;10144;50.874;4.762;2024-01-15T11:14:34;12.20;99.90
19966;DHT22;10144;50.874;4.762;2024-01-15T11:17:00;11.40;99.90
19966;DHT22;10144;50.874;4.762;2024-01-15T11:22:53;8.30;99.90
19966;DHT22;10144;50.874;4.762;2024-01-15T11:25:13;7.50;99.90
19966;DHT22;10144;50.874;4.762;2024-01-15T11:30:10;6.60;99.90
19966;DHT22;10144;50.874;4.762;2024-01-15T11:32:36;6.50;99.90
19966;DHT22;10144;50.874;4.762;2024-01-15T11:35:03;6.30;99.90
19966;DHT22;10144;50.874;4.762;2024-01-15T11:40:19;5.80;99.90
19966;DHT22;10144;50.874;4.762;2024-01-15T11:42:46;5.70;99.90
19966;DHT22;10144;50.874;4.762;2024-01-15T11:45:13;5.70;99.90
19966;DHT22;10144;50.874;4.762;2024-01-15T11:48:14;5.60;99.90
19966;DHT22;10144;50.874;4.762;2024-01-15T11:55:51;6.00;99.90
19966;DHT22;10144;50.874;4.762;2024-01-15T11:58:19;6.10;99.90
19966;DHT22;10144;50.874;4.762;2024-01-15T12:00:48;6.10;99.90
19966;DHT22;10144;50.874;4.762;2024-01-15T12:03:16;5.90;99.90
19966;DHT22;10144;50.874;4.762;2024-01-15T12:05:41;5.90;99.90
19966;DHT22;10144;50.874;4.762;2024-01-15T12:08:08;6.80;99.90
19966;DHT22;10144;50.874;4.762;2024-01-15T12:10:37;8.50;99.90
19966;DHT22;10144;50.874;4.762;2024-01-15T12:13:14;9.80;99.90
19966;DHT22;10144;50.874;4.762;2024-01-15T12:15:41;8.60;99.90
19966;DHT22;10144;50.874;4.762;2024-01-15T12:18:09;7.40;99.90
19966;DHT22;10144;50.874;4.762;2024-01-15T12:20:35;6.60;99.90
19966;DHT22;10144;50.874;4.762;2024-01-15T12:23:02;6.20;99.90
19966;DHT22;10144;50.874;4.762;2024-01-15T12:25:32;6.30;99.90
19966;DHT22;10144;50.874;4.762;2024-01-15T12:27:59;6.10;99.90
19966;DHT22;10144;50.874;4.762;2024-01-15T12:30:30;5.70;99.90
19966;DHT22;10144;50.874;4.762;2024-01-15T12:33:02;6.10;99.90
19966;DHT22;10144;50.874;4.762;2024-01-15T12:35:29;7.10;99.90
19966;DHT22;10144;50.874;4.762;2024-01-15T12:37:55;7.80;99.90
19966;DHT22;10144;50.874;4.762;2024-01-15T12:40:22;7.00;99.90
19966;DHT22;10144;50.874;4.762;2024-01-15T12:42:47;6.80;99.90
19966;DHT22;10144;50.874;4.762;2024-01-15T12:45:13;6.80;99.90
19966;DHT22;10144;50.874;4.762;2024-01-15T12:47:40;6.60;99.90
19966;DHT22;10144;50.874;4.762;2024-01-15T12:50:11;6.10;99.90
19966;DHT22;10144;50.874;4.762;2024-01-15T12:52:39;5.70;99.90
19966;DHT22;10144;50.874;4.762;2024-01-15T12:55:10;5.50;99.90
19966;DHT22;10144;50.874;4.762;2024-01-15T12:57:37;5.30;99.90
19966;DHT22;10144;50.874;4.762;2024-01-15T13:00:03;5.50;99.90
19966;DHT22;10144;50.874;4.762;2024-01-15T13:02:36;5.30;99.90
19966;DHT22;10144;50.874;4.762;2024-01-15T13:05:03;4.80;99.90
19966;DHT22;10144;50.874;4.762;2024-01-15T13:07:29;4.20;99.90
19966;DHT22;10144;50.874;4.762;2024-01-15T13:09:55;3.80;99.90
19966;DHT22;10144;50.874;4.762;2024-01-15T13:12:21;3.30;99.90
19966;DHT22;10144;50.874;4.762;2024-01-15T13:14:48;2.90;99.90
19966;DHT22;10144;50.874;4.762;2024-01-15T13:17:13;2.80;99.90
19966;DHT22;10144;50.874;4.762;2024-01-15T13:19:42;2.40;99.90
19966;DHT22;10144;50.874;4.762;2024-01-15T13:22:08;2.10;99.90
19966;DHT22;10144;50.874;4.762;2024-01-15T13:24:37;1.70;99.90
19966;DHT22;10144;50.874;4.762;2024-01-15T13:27:03;1.60;99.90
19966;DHT22;10144;50.874;4.762;2024-01-15T13:29:32;1.50;99.90
19966;DHT22;10144;50.874;4.762;2024-01-15T13:31:58;1.30;99.90
19966;DHT22;10144;50.874;4.762;2024-01-15T13:34:24;1.20;99.90
19966;DHT22;10144;50.874;4.762;2024-01-15T13:36:51;1.20;99.90
19966;DHT22;10144;50.874;4.762;2024-01-15T13:39:18;1.20;99.90
19966;DHT22;10144;50.874;4.762;2024-01-15T13:41:49;1.20;99.90
19966;DHT22;10144;50.874;4.762;2024-01-15T13:44:14;1.10;99.90
19966;DHT22;10144;50.874;4.762;2024-01-15T13:46:40;1.10;99.90
19966;DHT22;10144;50.874;4.762;2024-01-15T13:49:07;1.30;99.90
19966;DHT22;10144;50.874;4.762;2024-01-15T13:51:34;1.30;99.90
19966;DHT22;10144;50.874;4.762;2024-01-15T13:54:01;1.40;99.90
19966;DHT22;10144;50.874;4.762;2024-01-15T13:56:26;1.40;99.90
19966;DHT22;10144;50.874;4.762;2024-01-15T13:58:56;1.20;99.90
19966;DHT22;10144;50.874;4.762;2024-01-15T14:01:23;1.10;99.90
19966;DHT22;10144;50.874;4.762;2024-01-15T14:03:49;1.30;99.90
19966;DHT22;10144;50.874;4.762;2024-01-15T14:06:15;1.00;99.90
19966;DHT22;10144;50.874;4.762;2024-01-15T14:08:40;1.00;99.90
19966;DHT22;10144;50.874;4.762;2024-01-15T14:11:07;1.00;99.90
19966;DHT22;10144;50.874;4.762;2024-01-15T14:13:33;1.10;99.90
19966;DHT22;10144;50.874;4.762;2024-01-15T14:15:59;1.10;99.90
19966;DHT22;10144;50.874;4.762;2024-01-15T14:18:26;1.10;99.90
19966;DHT22;10144;50.874;4.762;2024-01-15T14:20:51;1.20;99.90
19966;DHT22;10144;50.874;4.762;2024-01-15T14:23:19;1.20;99.90
19966;DHT22;10144;50.874;4.762;2024-01-15T14:25:45;1.30;99.90
19966;DHT22;10144;50.874;4.762;2024-01-15T14:28:10;1.20;99.90
19966;DHT22;10144;50.874;4.762;2024-01-15T14:30:36;1.20;99.90
19966;DHT22;10144;50.874;4.762;2024-01-15T14:33:01;1.10;99.90
19966;DHT22;10144;50.874;4.762;2024-01-15T14:35:27;1.20;99.90
19966;DHT22;10144;50.874;4.762;2024-01-15T14:37:53;1.10;99.90
19966;DHT22;10144;50.874;4.762;2024-01-15T14:40:18;1.00;99.90
19966;DHT22;10144;50.874;4.762;2024-01-15T14:42:44;0.90;99.90
19966;DHT22;10144;50.874;4.762;2024-01-15T14:45:10;0.80;99.90
19966;DHT22;10144;50.874;4.762;2024-01-15T14:47:39;0.80;99.90
19966;DHT22;10144;50.874;4.762;2024-01-15T14:50:09;0.90;99.90
19966;DHT22;10144;50.874;4.762;2024-01-15T14:52:38;1.00;99.90
19966;DHT22;10144;50.874;4.762;2024-01-15T14:55:04;1.00;99.90
19966;DHT22;10144;50.874;4.762;2024-01-15T14:57:30;1.10;99.90
19966;DHT22;10144;50.874;4.762;2024-01-15T14:59:56;1.10;99.90
19966;DHT22;10144;50.874;4.762;2024-01-15T15:02:23;1.10;99.90
19966;DHT22;10144;50.874;4.762;2024-01-15T15:04:51;1.30;99.90
19966;DHT22;10144;50.874;4.762;2024-01-15T15:07:18;1.20;99.90
19966;DHT22;10144;50.874;4.762;2024-01-15T15:09:44;1.30;99.90
19966;DHT22;10144;50.874;4.762;2024-01-15T15:12:09;1.50;99.90
19966;DHT22;10144;50.874;4.762;2024-01-15T15:14:35;1.70;99.90
19966;DHT22;10144;50.874;4.762;2024-01-15T15:17:05;1.80;99.90
19966;DHT22;10144;50.874;4.762;2024-01-15T15:19:32;1.80;99.90
19966;DHT22;10144;50.874;4.762;2024-01-15T15:21:58;2.00;99.90
19966;DHT22;10144;50.874;4.762;2024-01-15T15:24:24;2.00;99.90
19966;DHT22;10144;50.874;4.762;2024-01-15T15:26:49;2.20;99.90
19966;DHT22;10144;50.874;4.762;2024-01-15T15:29:15;2.20;99.90
19966;DHT22;10144;50.874;4.762;2024-01-15T15:31:42;2.20;99.90
19966;DHT22;10144;50.874;4.762;2024-01-15T15:34:08;2.00;99.90
19966;DHT22;10144;50.874;4.762;2024-01-15T15:36:33;1.90;99.90
19966;DHT22;10144;50.874;4.762;2024-01-15T15:38:59;1.90;99.90
19966;DHT22;10144;50.874;4.762;2024-01-15T15:41:25;1.90;99.90
19966;DHT22;10144;50.874;4.762;2024-01-15T15:43:55;1.70;99.90
19966;DHT22;10144;50.874;4.762;2024-01-15T15:46:21;1.70;99.90
19966;DHT22;10144;50.874;4.762;2024-01-15T15:48:46;1.80;99.90
19966;DHT22;10144;50.874;4.762;2024-01-15T15:51:12;1.90;99.90
19966;DHT22;10144;50.874;4.762;2024-01-15T15:53:37;2.00;99.90
19966;DHT22;10144;50.874;4.762;2024-01-15T15:56:03;2.00;99.90
19966;DHT22;10144;50.874;4.762;2024-01-15T15:58:29;1.90;99.90
19966;DHT22;10144;50.874;4.762;2024-01-15T16:00:55;2.00;99.90
19966;DHT22;10144;50.874;4.762;2024-01-15T16:03:20;1.90;99.90
19966;DHT22;10144;50.874;4.762;2024-01-15T16:05:46;1.90;99.90
19966;DHT22;10144;50.874;4.762;2024-01-15T16:08:14;1.80;99.90
19966;DHT22;10144;50.874;4.762;2024-01-15T16:10:39;1.80;99.90
19966;DHT22;10144;50.874;4.762;2024-01-15T16:13:05;1.70;99.90
19966;DHT22;10144;50.874;4.762;2024-01-15T16:15:31;1.60;99.90
19966;DHT22;10144;50.874;4.762;2024-01-15T16:17:56;1.60;99.90
19966;DHT22;10144;50.874;4.762;2024-01-15T16:20:23;1.50;99.90
19966;DHT22;10144;50.874;4.762;2024-01-15T16:22:49;1.40;99.90